Plainview, New York
Current Conditions -  °F | °C
As of 4:53 AM on Monday 22 Dec 2014 (Local Time) from KFRG Reporting Station
Overcast Overcast  
Wind Chill: 33°   Ceiling: 700
Heat Index: 38°   Visibility: 10mi
Dew Point: 35°   Wind: 6mph
Humidity: 89%   Direction: 10°N
Pressure: 30.31"   Gusts: NA
Location:  40.78°N, 73.47°W
Report Text: KFRG 220953Z AUTO 01005KT 10SM OVC007 03/02 A3031 RMK AO2 SLP265 T00330017
Loading
Personal Weather Stations






























Interactive Weather Map New forecast layout! Learn more

10-Day Weather Forecast

Advertisements
Track Severe Weather on mobile